sensor_id;sensor_type;location;lat;lon;timestamp;pressure;altitude;pressure_sealevel;temperature;humidity
9077;BME280;4574;51.072;17.174;2023-09-07T00:00:38;63291.66;;;-139.42;100.00
9077;BME280;4574;51.072;17.174;2023-09-07T00:03:07;63291.66;;;-139.42;100.00
9077;BME280;4574;51.072;17.174;2023-09-07T00:05:36;63291.66;;;-139.42;100.00
9077;BME280;4574;51.072;17.174;2023-09-07T00:08:06;63291.66;;;-139.42;100.00
9077;BME280;4574;51.072;17.174;2023-09-07T00:10:34;63291.66;;;-139.42;100.00
9077;BME280;4574;51.072;17.174;2023-09-07T00:13:04;63291.66;;;-139.42;100.00
9077;BME280;4574;51.072;17.174;2023-09-07T00:15:36;63291.66;;;-139.42;100.00
9077;BME280;4574;51.072;17.174;2023-09-07T00:18:05;63291.66;;;-139.42;100.00
9077;BME280;4574;51.072;17.174;2023-09-07T00:20:34;63291.66;;;-139.42;100.00
9077;BME280;4574;51.072;17.174;2023-09-07T00:23:02;63291.66;;;-139.42;100.00
9077;BME280;4574;51.072;17.174;2023-09-07T00:25:32;63291.66;;;-139.42;100.00
9077;BME280;4574;51.072;17.174;2023-09-07T00:28:01;63291.66;;;-139.42;100.00
9077;BME280;4574;51.072;17.174;2023-09-07T00:30:30;63291.66;;;-139.42;100.00
9077;BME280;4574;51.072;17.174;2023-09-07T00:32:58;63291.66;;;-139.42;100.00
9077;BME280;4574;51.072;17.174;2023-09-07T00:35:27;63291.66;;;-139.42;100.00
9077;BME280;4574;51.072;17.174;2023-09-07T00:37:55;63291.66;;;-139.42;100.00
9077;BME280;4574;51.072;17.174;2023-09-07T00:40:24;63291.66;;;-139.42;100.00
9077;BME280;4574;51.072;17.174;2023-09-07T00:42:54;63291.66;;;-139.42;100.00
9077;BME280;4574;51.072;17.174;2023-09-07T00:45:23;63291.66;;;-139.42;100.00
9077;BME280;4574;51.072;17.174;2023-09-07T00:47:52;63291.66;;;-139.42;100.00
9077;BME280;4574;51.072;17.174;2023-09-07T00:50:20;63291.66;;;-139.42;100.00
9077;BME280;4574;51.072;17.174;2023-09-07T00:52:49;63291.66;;;-139.42;100.00
9077;BME280;4574;51.072;17.174;2023-09-07T00:55:17;63291.66;;;-139.42;100.00
9077;BME280;4574;51.072;17.174;2023-09-07T00:57:46;63291.66;;;-139.42;100.00
9077;BME280;4574;51.072;17.174;2023-09-07T01:00:17;63291.66;;;-139.42;100.00
9077;BME280;4574;51.072;17.174;2023-09-07T01:02:49;63291.66;;;-139.42;100.00
9077;BME280;4574;51.072;17.174;2023-09-07T01:05:21;63291.66;;;-139.42;100.00
9077;BME280;4574;51.072;17.174;2023-09-07T01:07:54;63291.66;;;-139.42;100.00
9077;BME280;4574;51.072;17.174;2023-09-07T01:10:26;63291.66;;;-139.42;100.00
9077;BME280;4574;51.072;17.174;2023-09-07T01:12:54;63291.66;;;-139.42;100.00
9077;BME280;4574;51.072;17.174;2023-09-07T01:15:24;63291.66;;;-139.42;100.00
9077;BME280;4574;51.072;17.174;2023-09-07T01:17:53;63291.66;;;-139.42;100.00
9077;BME280;4574;51.072;17.174;2023-09-07T01:20:36;63291.66;;;-139.42;100.00
9077;BME280;4574;51.072;17.174;2023-09-07T01:23:09;63291.66;;;-139.42;100.00
9077;BME280;4574;51.072;17.174;2023-09-07T01:25:39;63291.66;;;-139.42;100.00
9077;BME280;4574;51.072;17.174;2023-09-07T01:28:08;63291.66;;;-139.42;100.00
9077;BME280;4574;51.072;17.174;2023-09-07T01:30:37;63291.66;;;-139.42;100.00
9077;BME280;4574;51.072;17.174;2023-09-07T01:33:06;63291.66;;;-139.42;100.00
9077;BME280;4574;51.072;17.174;2023-09-07T01:35:36;63291.66;;;-139.42;100.00
9077;BME280;4574;51.072;17.174;2023-09-07T01:38:07;63291.66;;;-139.42;100.00
9077;BME280;4574;51.072;17.174;2023-09-07T01:40:36;63291.66;;;-139.42;100.00
9077;BME280;4574;51.072;17.174;2023-09-07T01:43:05;63291.66;;;-139.42;100.00
9077;BME280;4574;51.072;17.174;2023-09-07T01:45:33;63291.66;;;-139.42;100.00
9077;BME280;4574;51.072;17.174;2023-09-07T01:48:02;63291.66;;;-139.42;100.00
9077;BME280;4574;51.072;17.174;2023-09-07T01:50:31;63291.66;;;-139.42;100.00
9077;BME280;4574;51.072;17.174;2023-09-07T01:52:59;63291.66;;;-139.42;100.00
9077;BME280;4574;51.072;17.174;2023-09-07T01:55:31;63291.66;;;-139.42;100.00
9077;BME280;4574;51.072;17.174;2023-09-07T01:58:00;63291.66;;;-139.42;100.00
9077;BME280;4574;51.072;17.174;2023-09-07T02:00:28;63291.66;;;-139.42;100.00
9077;BME280;4574;51.072;17.174;2023-09-07T02:02:57;63291.66;;;-139.42;100.00
9077;BME280;4574;51.072;17.174;2023-09-07T02:05:26;63291.66;;;-139.42;100.00
9077;BME280;4574;51.072;17.174;2023-09-07T02:07:54;63291.66;;;-139.42;100.00
9077;BME280;4574;51.072;17.174;2023-09-07T02:10:23;63291.66;;;-139.42;100.00
9077;BME280;4574;51.072;17.174;2023-09-07T02:12:53;63291.66;;;-139.42;100.00
9077;BME280;4574;51.072;17.174;2023-09-07T02:15:24;63291.66;;;-139.42;100.00
9077;BME280;4574;51.072;17.174;2023-09-07T02:17:52;63291.66;;;-139.42;100.00
9077;BME280;4574;51.072;17.174;2023-09-07T02:20:21;63291.66;;;-139.42;100.00
9077;BME280;4574;51.072;17.174;2023-09-07T02:22:50;63291.66;;;-139.42;100.00
9077;BME280;4574;51.072;17.174;2023-09-07T02:25:21;63291.66;;;-139.42;100.00
9077;BME280;4574;51.072;17.174;2023-09-07T02:27:50;63291.66;;;-139.42;100.00
9077;BME280;4574;51.072;17.174;2023-09-07T02:30:20;63291.66;;;-139.42;100.00
9077;BME280;4574;51.072;17.174;2023-09-07T02:32:48;63291.66;;;-139.42;100.00
9077;BME280;4574;51.072;17.174;2023-09-07T02:35:17;63291.66;;;-139.42;100.00
9077;BME280;4574;51.072;17.174;2023-09-07T02:37:46;63291.66;;;-139.42;100.00
9077;BME280;4574;51.072;17.174;2023-09-07T02:40:15;63291.66;;;-139.42;100.00
9077;BME280;4574;51.072;17.174;2023-09-07T02:42:44;63291.66;;;-139.42;100.00
9077;BME280;4574;51.072;17.174;2023-09-07T02:45:14;63291.66;;;-139.42;100.00
9077;BME280;4574;51.072;17.174;2023-09-07T02:47:44;63291.66;;;-139.42;100.00
9077;BME280;4574;51.072;17.174;2023-09-07T02:50:13;63291.66;;;-139.42;100.00
9077;BME280;4574;51.072;17.174;2023-09-07T02:52:42;63291.66;;;-139.42;100.00
9077;BME280;4574;51.072;17.174;2023-09-07T02:55:11;63291.66;;;-139.42;100.00
9077;BME280;4574;51.072;17.174;2023-09-07T02:57:39;63291.66;;;-139.42;100.00
9077;BME280;4574;51.072;17.174;2023-09-07T03:00:08;63291.66;;;-139.42;100.00
9077;BME280;4574;51.072;17.174;2023-09-07T03:02:38;63291.66;;;-139.42;100.00
9077;BME280;4574;51.072;17.174;2023-09-07T03:05:09;63291.66;;;-139.42;100.00
9077;BME280;4574;51.072;17.174;2023-09-07T03:07:37;63291.66;;;-139.42;100.00
9077;BME280;4574;51.072;17.174;2023-09-07T03:10:10;63291.66;;;-139.42;100.00
9077;BME280;4574;51.072;17.174;2023-09-07T03:12:39;63291.66;;;-139.42;100.00
9077;BME280;4574;51.072;17.174;2023-09-07T03:15:08;63291.66;;;-139.42;100.00
9077;BME280;4574;51.072;17.174;2023-09-07T03:17:37;63291.66;;;-139.42;100.00
9077;BME280;4574;51.072;17.174;2023-09-07T03:20:08;63291.66;;;-139.42;100.00
9077;BME280;4574;51.072;17.174;2023-09-07T03:22:41;63291.66;;;-139.42;100.00
9077;BME280;4574;51.072;17.174;2023-09-07T03:25:10;63291.66;;;-139.42;100.00
9077;BME280;4574;51.072;17.174;2023-09-07T03:27:39;63291.66;;;-139.42;100.00
9077;BME280;4574;51.072;17.174;2023-09-07T03:30:08;63291.66;;;-139.42;100.00
9077;BME280;4574;51.072;17.174;2023-09-07T03:32:37;63291.66;;;-139.42;100.00
9077;BME280;4574;51.072;17.174;2023-09-07T03:35:08;63291.66;;;-139.42;100.00
9077;BME280;4574;51.072;17.174;2023-09-07T03:37:37;63291.66;;;-139.42;100.00
9077;BME280;4574;51.072;17.174;2023-09-07T03:40:07;63291.66;;;-139.42;100.00
9077;BME280;4574;51.072;17.174;2023-09-07T03:42:37;63291.66;;;-139.42;100.00
9077;BME280;4574;51.072;17.174;2023-09-07T03:45:06;63291.66;;;-139.42;100.00
9077;BME280;4574;51.072;17.174;2023-09-07T03:47:35;63291.66;;;-139.42;100.00
9077;BME280;4574;51.072;17.174;2023-09-07T03:50:04;63291.66;;;-139.42;100.00
9077;BME280;4574;51.072;17.174;2023-09-07T03:52:34;63291.66;;;-139.42;100.00
9077;BME280;4574;51.072;17.174;2023-09-07T03:55:03;63291.66;;;-139.42;100.00
9077;BME280;4574;51.072;17.174;2023-09-07T03:57:32;63291.66;;;-139.42;100.00
9077;BME280;4574;51.072;17.174;2023-09-07T04:00:01;63291.66;;;-139.42;100.00
9077;BME280;4574;51.072;17.174;2023-09-07T04:02:34;63291.66;;;-139.42;100.00
9077;BME280;4574;51.072;17.174;2023-09-07T04:05:04;63291.66;;;-139.42;100.00
9077;BME280;4574;51.072;17.174;2023-09-07T04:07:34;63291.66;;;-139.42;100.00
9077;BME280;4574;51.072;17.174;2023-09-07T04:10:04;63291.66;;;-139.42;100.00
9077;BME280;4574;51.072;17.174;2023-09-07T04:12:32;63291.66;;;-139.42;100.00
9077;BME280;4574;51.072;17.174;2023-09-07T04:15:02;63291.66;;;-139.42;100.00
9077;BME280;4574;51.072;17.174;2023-09-07T04:17:31;63291.66;;;-139.42;100.00
9077;BME280;4574;51.072;17.174;2023-09-07T04:20:08;63291.66;;;-139.42;100.00
9077;BME280;4574;51.072;17.174;2023-09-07T04:22:40;63291.66;;;-139.42;100.00
9077;BME280;4574;51.072;17.174;2023-09-07T04:25:09;63291.66;;;-139.42;100.00
9077;BME280;4574;51.072;17.174;2023-09-07T04:27:38;63291.66;;;-139.42;100.00
9077;BME280;4574;51.072;17.174;2023-09-07T04:30:08;63291.66;;;-139.42;100.00
9077;BME280;4574;51.072;17.174;2023-09-07T04:32:36;63291.66;;;-139.42;100.00
9077;BME280;4574;51.072;17.174;2023-09-07T04:35:08;63291.66;;;-139.42;100.00
9077;BME280;4574;51.072;17.174;2023-09-07T04:37:37;63291.66;;;-139.42;100.00
9077;BME280;4574;51.072;17.174;2023-09-07T04:40:08;63291.66;;;-139.42;100.00
9077;BME280;4574;51.072;17.174;2023-09-07T04:42:36;63291.66;;;-139.42;100.00
9077;BME280;4574;51.072;17.174;2023-09-07T04:45:06;63291.66;;;-139.42;100.00
9077;BME280;4574;51.072;17.174;2023-09-07T04:47:35;63291.66;;;-139.42;100.00
9077;BME280;4574;51.072;17.174;2023-09-07T04:50:05;63291.66;;;-139.42;100.00
9077;BME280;4574;51.072;17.174;2023-09-07T04:52:34;63291.66;;;-139.42;100.00
9077;BME280;4574;51.072;17.174;2023-09-07T04:55:03;63291.66;;;-139.42;100.00
9077;BME280;4574;51.072;17.174;2023-09-07T04:57:33;63291.66;;;-139.42;100.00
9077;BME280;4574;51.072;17.174;2023-09-07T05:00:02;63291.66;;;-139.42;100.00
9077;BME280;4574;51.072;17.174;2023-09-07T05:02:32;63291.66;;;-139.42;100.00
9077;BME280;4574;51.072;17.174;2023-09-07T05:05:06;63291.66;;;-139.42;100.00
9077;BME280;4574;51.072;17.174;2023-09-07T05:07:34;63291.66;;;-139.42;100.00
9077;BME280;4574;51.072;17.174;2023-09-07T05:10:03;63291.66;;;-139.42;100.00
9077;BME280;4574;51.072;17.174;2023-09-07T05:12:35;63291.66;;;-139.42;100.00
9077;BME280;4574;51.072;17.174;2023-09-07T05:15:04;63291.66;;;-139.42;100.00
9077;BME280;4574;51.072;17.174;2023-09-07T05:17:35;63291.66;;;-139.42;100.00
9077;BME280;4574;51.072;17.174;2023-09-07T05:20:04;63291.66;;;-139.42;100.00
9077;BME280;4574;51.072;17.174;2023-09-07T05:22:33;63291.66;;;-139.42;100.00
9077;BME280;4574;51.072;17.174;2023-09-07T05:25:05;63291.66;;;-139.42;100.00
9077;BME280;4574;51.072;17.174;2023-09-07T05:27:35;63291.66;;;-139.42;100.00
9077;BME280;4574;51.072;17.174;2023-09-07T05:30:05;63291.66;;;-139.42;100.00
9077;BME280;4574;51.072;17.174;2023-09-07T05:32:34;63291.66;;;-139.42;100.00
9077;BME280;4574;51.072;17.174;2023-09-07T05:35:03;63291.66;;;-139.42;100.00
9077;BME280;4574;51.072;17.174;2023-09-07T05:37:31;63291.66;;;-139.42;100.00
9077;BME280;4574;51.072;17.174;2023-09-07T05:40:00;63291.66;;;-139.42;100.00
9077;BME280;4574;51.072;17.174;2023-09-07T05:42:30;63291.66;;;-139.42;100.00
9077;BME280;4574;51.072;17.174;2023-09-07T05:45:00;63291.66;;;-139.42;100.00
9077;BME280;4574;51.072;17.174;2023-09-07T05:47:30;63291.66;;;-139.42;100.00
9077;BME280;4574;51.072;17.174;2023-09-07T05:49:59;63291.66;;;-139.42;100.00
9077;BME280;4574;51.072;17.174;2023-09-07T05:52:27;63291.66;;;-139.42;100.00
9077;BME280;4574;51.072;17.174;2023-09-07T05:54:56;63291.66;;;-139.42;100.00
9077;BME280;4574;51.072;17.174;2023-09-07T05:57:24;63291.66;;;-139.42;100.00
9077;BME280;4574;51.072;17.174;2023-09-07T05:59:53;63291.66;;;-139.42;100.00
9077;BME280;4574;51.072;17.174;2023-09-07T06:02:22;63291.66;;;-139.42;100.00
9077;BME280;4574;51.072;17.174;2023-09-07T06:04:51;63291.66;;;-139.42;100.00
9077;BME280;4574;51.072;17.174;2023-09-07T06:07:20;63291.66;;;-139.42;100.00
9077;BME280;4574;51.072;17.174;2023-09-07T06:09:48;63291.66;;;-139.42;100.00
9077;BME280;4574;51.072;17.174;2023-09-07T06:12:17;63291.66;;;-139.42;100.00
9077;BME280;4574;51.072;17.174;2023-09-07T06:14:46;63291.66;;;-139.42;100.00
9077;BME280;4574;51.072;17.174;2023-09-07T06:17:15;63291.66;;;-139.42;100.00
9077;BME280;4574;51.072;17.174;2023-09-07T06:19:46;63291.66;;;-139.42;100.00
9077;BME280;4574;51.072;17.174;2023-09-07T06:22:15;63291.66;;;-139.42;100.00
9077;BME280;4574;51.072;17.174;2023-09-07T06:24:45;63291.66;;;-139.42;100.00
9077;BME280;4574;51.072;17.174;2023-09-07T06:27:14;63291.66;;;-139.42;100.00
9077;BME280;4574;51.072;17.174;2023-09-07T06:29:43;63291.66;;;-139.42;100.00
9077;BME280;4574;51.072;17.174;2023-09-07T06:32:11;63291.66;;;-139.42;100.00
9077;BME280;4574;51.072;17.174;2023-09-07T06:34:40;63291.66;;;-139.42;100.00
9077;BME280;4574;51.072;17.174;2023-09-07T06:37:11;63291.66;;;-139.42;100.00
9077;BME280;4574;51.072;17.174;2023-09-07T06:39:41;63291.66;;;-139.42;100.00
9077;BME280;4574;51.072;17.174;2023-09-07T06:42:11;63291.66;;;-139.42;100.00
9077;BME280;4574;51.072;17.174;2023-09-07T06:44:43;63291.66;;;-139.42;100.00
9077;BME280;4574;51.072;17.174;2023-09-07T06:47:12;63291.66;;;-139.42;100.00
9077;BME280;4574;51.072;17.174;2023-09-07T06:49:40;63291.66;;;-139.42;100.00
9077;BME280;4574;51.072;17.174;2023-09-07T06:52:10;63291.66;;;-139.42;100.00
9077;BME280;4574;51.072;17.174;2023-09-07T06:54:39;63291.66;;;-139.42;100.00
9077;BME280;4574;51.072;17.174;2023-09-07T06:57:07;63291.66;;;-139.42;100.00
9077;BME280;4574;51.072;17.174;2023-09-07T06:59:36;63291.66;;;-139.42;100.00
9077;BME280;4574;51.072;17.174;2023-09-07T07:02:05;63291.66;;;-139.42;100.00
9077;BME280;4574;51.072;17.174;2023-09-07T07:04:34;63291.66;;;-139.42;100.00
9077;BME280;4574;51.072;17.174;2023-09-07T07:07:03;63291.66;;;-139.42;100.00
9077;BME280;4574;51.072;17.174;2023-09-07T07:09:35;63291.66;;;-139.42;100.00
9077;BME280;4574;51.072;17.174;2023-09-07T07:12:04;63291.66;;;-139.42;100.00
9077;BME280;4574;51.072;17.174;2023-09-07T07:14:33;63291.66;;;-139.42;100.00
9077;BME280;4574;51.072;17.174;2023-09-07T07:17:02;63291.66;;;-139.42;100.00
9077;BME280;4574;51.072;17.174;2023-09-07T07:19:32;63291.66;;;-139.42;100.00
9077;BME280;4574;51.072;17.174;2023-09-07T07:22:00;63291.66;;;-139.42;100.00
9077;BME280;4574;51.072;17.174;2023-09-07T07:24:30;63291.66;;;-139.42;100.00
9077;BME280;4574;51.072;17.174;2023-09-07T07:27:01;63291.66;;;-139.42;100.00
9077;BME280;4574;51.072;17.174;2023-09-07T07:29:30;63291.66;;;-139.42;100.00
9077;BME280;4574;51.072;17.174;2023-09-07T07:31:59;63291.66;;;-139.42;100.00
9077;BME280;4574;51.072;17.174;2023-09-07T07:34:28;63291.66;;;-139.42;100.00
9077;BME280;4574;51.072;17.174;2023-09-07T07:36:56;63291.66;;;-139.42;100.00
9077;BME280;4574;51.072;17.174;2023-09-07T07:39:25;63291.66;;;-139.42;100.00
9077;BME280;4574;51.072;17.174;2023-09-07T07:41:53;63291.66;;;-139.42;100.00
9077;BME280;4574;51.072;17.174;2023-09-07T07:44:23;63291.66;;;-139.42;100.00
9077;BME280;4574;51.072;17.174;2023-09-07T07:46:52;63291.66;;;-139.42;100.00
9077;BME280;4574;51.072;17.174;2023-09-07T07:49:20;63291.66;;;-139.42;100.00
9077;BME280;4574;51.072;17.174;2023-09-07T07:51:49;63291.66;;;-139.42;100.00
9077;BME280;4574;51.072;17.174;2023-09-07T07:54:18;63291.66;;;-139.42;100.00
9077;BME280;4574;51.072;17.174;2023-09-07T07:56:47;63291.66;;;-139.42;100.00
9077;BME280;4574;51.072;17.174;2023-09-07T07:59:16;63291.66;;;-139.42;100.00
9077;BME280;4574;51.072;17.174;2023-09-07T08:01:47;63291.66;;;-139.42;100.00
9077;BME280;4574;51.072;17.174;2023-09-07T08:04:15;63291.66;;;-139.42;100.00
9077;BME280;4574;51.072;17.174;2023-09-07T08:06:44;63291.66;;;-139.42;100.00
9077;BME280;4574;51.072;17.174;2023-09-07T08:09:13;63291.66;;;-139.42;100.00
9077;BME280;4574;51.072;17.174;2023-09-07T08:11:42;63291.66;;;-139.42;100.00
9077;BME280;4574;51.072;17.174;2023-09-07T08:14:11;63291.66;;;-139.42;100.00
9077;BME280;4574;51.072;17.174;2023-09-07T08:16:40;63291.66;;;-139.42;100.00
9077;BME280;4574;51.072;17.174;2023-09-07T08:19:10;63291.66;;;-139.42;100.00
9077;BME280;4574;51.072;17.174;2023-09-07T08:21:39;63291.66;;;-139.42;100.00
9077;BME280;4574;51.072;17.174;2023-09-07T08:24:09;63291.66;;;-139.42;100.00
9077;BME280;4574;51.072;17.174;2023-09-07T08:26:37;63291.66;;;-139.42;100.00
9077;BME280;4574;51.072;17.174;2023-09-07T08:29:07;63291.66;;;-139.42;100.00
9077;BME280;4574;51.072;17.174;2023-09-07T08:31:36;63291.66;;;-139.42;100.00
9077;BME280;4574;51.072;17.174;2023-09-07T08:34:06;63291.66;;;-139.42;100.00
9077;BME280;4574;51.072;17.174;2023-09-07T08:36:37;63291.66;;;-139.42;100.00
9077;BME280;4574;51.072;17.174;2023-09-07T08:39:06;63291.66;;;-139.42;100.00
9077;BME280;4574;51.072;17.174;2023-09-07T08:41:40;63291.66;;;-139.42;100.00
9077;BME280;4574;51.072;17.174;2023-09-07T08:44:28;63291.66;;;-139.42;100.00
9077;BME280;4574;51.072;17.174;2023-09-07T08:46:59;63291.66;;;-139.42;100.00
9077;BME280;4574;51.072;17.174;2023-09-07T08:49:28;63291.66;;;-139.42;100.00
9077;BME280;4574;51.072;17.174;2023-09-07T08:52:01;63291.66;;;-139.42;100.00
9077;BME280;4574;51.072;17.174;2023-09-07T08:54:30;63291.66;;;-139.42;100.00
9077;BME280;4574;51.072;17.174;2023-09-07T08:57:02;63291.66;;;-139.42;100.00
9077;BME280;4574;51.072;17.174;2023-09-07T08:59:32;63291.66;;;-139.42;100.00
9077;BME280;4574;51.072;17.174;2023-09-07T09:02:00;63291.66;;;-139.42;100.00
9077;BME280;4574;51.072;17.174;2023-09-07T09:04:32;63291.66;;;-139.42;100.00
9077;BME280;4574;51.072;17.174;2023-09-07T09:07:04;63291.66;;;-139.42;100.00
9077;BME280;4574;51.072;17.174;2023-09-07T09:09:33;63291.66;;;-139.42;100.00
9077;BME280;4574;51.072;17.174;2023-09-07T09:12:08;63291.66;;;-139.42;100.00
9077;BME280;4574;51.072;17.174;2023-09-07T09:14:37;63291.66;;;-139.42;100.00
9077;BME280;4574;51.072;17.174;2023-09-07T09:17:05;63291.66;;;-139.42;100.00
9077;BME280;4574;51.072;17.174;2023-09-07T09:19:35;63291.66;;;-139.42;100.00
9077;BME280;4574;51.072;17.174;2023-09-07T09:22:06;63291.66;;;-139.42;100.00
9077;BME280;4574;51.072;17.174;2023-09-07T09:24:34;63291.66;;;-139.42;100.00
9077;BME280;4574;51.072;17.174;2023-09-07T09:27:04;63291.66;;;-139.42;100.00
9077;BME280;4574;51.072;17.174;2023-09-07T09:29:32;63291.66;;;-139.42;100.00
9077;BME280;4574;51.072;17.174;2023-09-07T09:32:03;63291.66;;;-139.42;100.00
9077;BME280;4574;51.072;17.174;2023-09-07T09:34:33;63291.66;;;-139.42;100.00
9077;BME280;4574;51.072;17.174;2023-09-07T09:37:05;63291.66;;;-139.42;100.00
9077;BME280;4574;51.072;17.174;2023-09-07T09:39:41;63291.66;;;-139.42;100.00
9077;BME280;4574;51.072;17.174;2023-09-07T09:42:10;63291.66;;;-139.42;100.00
9077;BME280;4574;51.072;17.174;2023-09-07T09:44:40;63291.66;;;-139.42;100.00
9077;BME280;4574;51.072;17.174;2023-09-07T09:47:10;63291.66;;;-139.42;100.00
9077;BME280;4574;51.072;17.174;2023-09-07T09:49:41;63291.66;;;-139.42;100.00
9077;BME280;4574;51.072;17.174;2023-09-07T09:52:11;63291.66;;;-139.42;100.00
9077;BME280;4574;51.072;17.174;2023-09-07T09:54:41;63291.66;;;-139.42;100.00
9077;BME280;4574;51.072;17.174;2023-09-07T09:57:10;63291.66;;;-139.42;100.00
9077;BME280;4574;51.072;17.174;2023-09-07T09:59:39;63291.66;;;-139.42;100.00
9077;BME280;4574;51.072;17.174;2023-09-07T10:02:08;101120.94;;;25.60;71.01
9077;BME280;4574;51.072;17.174;2023-09-07T10:04:37;101115.66;;;25.65;70.22
9077;BME280;4574;51.072;17.174;2023-09-07T10:07:06;101109.97;;;25.73;71.26
9077;BME280;4574;51.072;17.174;2023-09-07T10:09:38;101105.75;;;25.77;69.70
9077;BME280;4574;51.072;17.174;2023-09-07T10:12:11;101118.88;;;25.80;67.68
9077;BME280;4574;51.072;17.174;2023-09-07T10:14:43;101110.91;;;25.85;69.58
9077;BME280;4574;51.072;17.174;2023-09-07T10:17:26;101111.44;;;25.93;69.85
9077;BME280;4574;51.072;17.174;2023-09-07T10:20:02;101108.66;;;25.99;68.56
9077;BME280;4574;51.072;17.174;2023-09-07T10:22:32;101113.50;;;26.15;70.07
9077;BME280;4574;51.072;17.174;2023-09-07T10:25:03;101105.38;;;26.15;69.09
9077;BME280;4574;51.072;17.174;2023-09-07T10:27:38;101108.38;;;26.25;70.07
9077;BME280;4574;51.072;17.174;2023-09-07T10:30:10;101109.28;;;26.19;68.99
9077;BME280;4574;51.072;17.174;2023-09-07T10:32:40;101104.91;;;26.18;68.91
9077;BME280;4574;51.072;17.174;2023-09-07T10:35:13;101098.13;;;26.27;68.34
9077;BME280;4574;51.072;17.174;2023-09-07T10:37:46;101090.34;;;26.31;67.33
9077;BME280;4574;51.072;17.174;2023-09-07T10:40:25;101075.88;;;26.37;67.52
9077;BME280;4574;51.072;17.174;2023-09-07T10:43:03;101087.34;;;26.39;67.09
9077;BME280;4574;51.072;17.174;2023-09-07T10:45:31;101095.34;;;26.52;66.95
9077;BME280;4574;51.072;17.174;2023-09-07T10:48:00;101091.53;;;26.71;67.84
9077;BME280;4574;51.072;17.174;2023-09-07T10:50:31;101089.03;;;26.69;67.34
9077;BME280;4574;51.072;17.174;2023-09-07T10:53:11;101083.13;;;26.72;66.02
9077;BME280;4574;51.072;17.174;2023-09-07T10:55:41;101082.06;;;26.73;65.53
9077;BME280;4574;51.072;17.174;2023-09-07T10:58:11;101071.22;;;26.73;64.11
9077;BME280;4574;51.072;17.174;2023-09-07T11:00:46;101081.44;;;26.89;65.45
9077;BME280;4574;51.072;17.174;2023-09-07T11:03:15;101082.03;;;26.91;65.13
9077;BME280;4574;51.072;17.174;2023-09-07T11:05:43;101079.78;;;26.88;64.43
9077;BME280;4574;51.072;17.174;2023-09-07T11:08:12;101077.44;;;26.92;64.60
9077;BME280;4574;51.072;17.174;2023-09-07T11:10:42;101081.66;;;27.17;64.62
9077;BME280;4574;51.072;17.174;2023-09-07T11:13:15;101076.28;;;27.40;63.18
9077;BME280;4574;51.072;17.174;2023-09-07T11:15:44;101072.50;;;27.41;64.09
9077;BME280;4574;51.072;17.174;2023-09-07T11:18:12;101071.31;;;27.60;62.50
9077;BME280;4574;51.072;17.174;2023-09-07T11:20:41;101081.13;;;27.61;62.17
9077;BME280;4574;51.072;17.174;2023-09-07T11:23:10;101077.38;;;27.73;62.87
9077;BME280;4574;51.072;17.174;2023-09-07T11:25:39;101068.25;;;27.91;62.77
9077;BME280;4574;51.072;17.174;2023-09-07T11:28:10;101064.78;;;28.07;62.02
9077;BME280;4574;51.072;17.174;2023-09-07T11:30:48;101069.53;;;28.11;61.25
9077;BME280;4574;51.072;17.174;2023-09-07T11:33:17;63291.66;;;-139.42;100.00
9077;BME280;4574;51.072;17.174;2023-09-07T11:35:46;63291.66;;;-139.42;100.00
9077;BME280;4574;51.072;17.174;2023-09-07T11:38:16;63291.66;;;-139.42;100.00
9077;BME280;4574;51.072;17.174;2023-09-07T11:40:45;63291.66;;;-139.42;100.00
9077;BME280;4574;51.072;17.174;2023-09-07T11:43:17;63291.66;;;-139.42;100.00
9077;BME280;4574;51.072;17.174;2023-09-07T11:45:47;63291.66;;;-139.42;100.00
9077;BME280;4574;51.072;17.174;2023-09-07T11:48:16;63291.66;;;-139.42;100.00
9077;BME280;4574;51.072;17.174;2023-09-07T11:50:44;63291.66;;;-139.42;100.00
9077;BME280;4574;51.072;17.174;2023-09-07T11:53:13;63291.66;;;-139.42;100.00
9077;BME280;4574;51.072;17.174;2023-09-07T11:55:41;63291.66;;;-139.42;100.00
9077;BME280;4574;51.072;17.174;2023-09-07T11:58:10;63291.66;;;-139.42;100.00
9077;BME280;4574;51.072;17.174;2023-09-07T12:00:40;63291.66;;;-139.42;100.00
9077;BME280;4574;51.072;17.174;2023-09-07T12:03:10;63291.66;;;-139.42;100.00
9077;BME280;4574;51.072;17.174;2023-09-07T12:05:39;63291.66;;;-139.42;100.00
9077;BME280;4574;51.072;17.174;2023-09-07T12:08:09;63291.66;;;-139.42;100.00
9077;BME280;4574;51.072;17.174;2023-09-07T12:10:38;63291.66;;;-139.42;100.00
9077;BME280;4574;51.072;17.174;2023-09-07T12:13:06;63291.66;;;-139.42;100.00
9077;BME280;4574;51.072;17.174;2023-09-07T12:15:35;63291.66;;;-139.42;100.00
9077;BME280;4574;51.072;17.174;2023-09-07T12:18:05;63291.66;;;-139.42;100.00
9077;BME280;4574;51.072;17.174;2023-09-07T12:20:35;63291.66;;;-139.42;100.00
9077;BME280;4574;51.072;17.174;2023-09-07T12:23:03;63291.66;;;-139.42;100.00
9077;BME280;4574;51.072;17.174;2023-09-07T12:25:32;63291.66;;;-139.42;100.00
9077;BME280;4574;51.072;17.174;2023-09-07T12:28:00;63291.66;;;-139.42;100.00
9077;BME280;4574;51.072;17.174;2023-09-07T12:30:29;63291.66;;;-139.42;100.00
9077;BME280;4574;51.072;17.174;2023-09-07T12:32:57;63291.66;;;-139.42;100.00
9077;BME280;4574;51.072;17.174;2023-09-07T12:35:27;63291.66;;;-139.42;100.00
9077;BME280;4574;51.072;17.174;2023-09-07T12:37:56;63291.66;;;-139.42;100.00
9077;BME280;4574;51.072;17.174;2023-09-07T12:40:25;63291.66;;;-139.42;100.00
9077;BME280;4574;51.072;17.174;2023-09-07T12:42:53;63291.66;;;-139.42;100.00
9077;BME280;4574;51.072;17.174;2023-09-07T12:45:22;63291.66;;;-139.42;100.00
9077;BME280;4574;51.072;17.174;2023-09-07T12:47:51;63291.66;;;-139.42;100.00
9077;BME280;4574;51.072;17.174;2023-09-07T12:50:19;63291.66;;;-139.42;100.00
9077;BME280;4574;51.072;17.174;2023-09-07T12:52:51;63291.66;;;-139.42;100.00
9077;BME280;4574;51.072;17.174;2023-09-07T12:55:21;63291.66;;;-139.42;100.00